Time;durP1;ratioP1;P1;durP2;ratioP2;P2;SDS_P1;SDS_P2;PMS_P1;PMS_P2;Temp;Humidity;BMP_temperature;BMP_pressure;BME280_temperature;BME280_humidity;BME280_pressure;Samples;Min_cycle;Max_cycle;Signal;HPM_P1;HPM_P2
2022/06/04 00:00:16;;;;;;;11.18;10.30;;;;;;;;;;5015582;28;20137;-81
2022/06/04 00:02:44;;;;;;;10.77;9.68;;;;;;;;;;5012973;28;20058;-83
2022/06/04 00:05:13;;;;;;;9.82;8.93;;;;;;;;;;5013836;28;20056;-83
2022/06/04 00:07:40;;;;;;;10.40;9.45;;;;;;;;;;5014012;28;20344;-84
2022/06/04 00:15:50;;;;;;;10.40;9.60;;;;;;;;;;5013897;28;20050;-84
2022/06/04 00:18:17;;;;;;;10.30;9.23;;;;;;;;;;5012543;28;20053;-83
2022/06/04 00:20:45;;;;;;;10.05;9.25;;;;;;;;;;5013825;28;20141;-83
2022/06/04 00:23:12;;;;;;;10.57;8.57;;;;;;;;;;5013352;28;20141;-83
2022/06/04 00:25:41;;;;;;;9.68;8.77;;;;;;;;;;5012523;28;20057;-83
2022/06/04 00:28:09;;;;;;;10.52;9.63;;;;;;;;;;5012490;28;20506;-83
2022/06/04 00:30:37;;;;;;;11.82;10.68;;;;;;;;;;5013647;28;20565;-84
2022/06/04 00:33:05;;;;;;;13.23;12.23;;;;;;;;;;5014165;28;20133;-83
2022/06/04 00:35:34;;;;;;;12.07;11.07;;;;;;;;;;5014097;28;20081;-83
2022/06/04 00:38:02;;;;;;;14.88;13.57;;;;;;;;;;5012392;28;20441;-83
2022/06/04 00:40:32;;;;;;;12.38;11.27;;;;;;;;;;5013694;28;20045;-82
2022/06/04 00:42:59;;;;;;;12.48;11.48;;;;;;;;;;5012427;28;20132;-83
2022/06/04 00:45:35;;;;;;;13.60;12.25;;;;;;;;;;5011886;28;20049;-83
2022/06/04 00:48:05;;;;;;;15.60;11.20;;;;;;;;;;5013238;28;20050;-83
2022/06/04 00:50:33;;;;;;;14.10;11.75;;;;;;;;;;5012413;28;20060;-83
2022/06/04 00:53:02;;;;;;;11.75;10.75;;;;;;;;;;5012335;28;20054;-83
2022/06/04 00:55:37;;;;;;;13.45;12.25;;;;;;;;;;5013372;28;20046;-83
2022/06/04 00:58:25;;;;;;;12.63;11.55;;;;;;;;;;5013320;28;20054;-83
2022/06/04 01:00:55;;;;;;;11.25;10.25;;;;;;;;;;5013305;28;20049;-84
2022/06/04 01:03:42;;;;;;;13.75;12.60;;;;;;;;;;5012079;28;20081;-83
2022/06/04 01:06:29;;;;;;;12.32;11.15;;;;;;;;;;5012014;28;20058;-83
2022/06/04 01:08:56;;;;;;;11.75;10.75;;;;;;;;;;5012985;28;20060;-83
2022/06/04 01:11:26;;;;;;;12.60;11.60;;;;;;;;;;5012096;28;20533;-83
2022/06/04 01:14:02;;;;;;;12.50;11.50;;;;;;;;;;5013165;28;20116;-82
2022/06/04 01:16:39;;;;;;;12.57;11.50;;;;;;;;;;5013235;28;20052;-84
2022/06/04 01:19:06;;;;;;;12.82;11.77;;;;;;;;;;5012925;28;20128;-83
2022/06/04 01:21:45;;;;;;;13.27;12.20;;;;;;;;;;5012832;28;20134;-83
2022/06/04 01:24:31;;;;;;;12.95;11.85;;;;;;;;;;5011668;28;20558;-83
2022/06/04 01:26:59;;;;;;;11.65;10.75;;;;;;;;;;5012745;28;20132;-84
2022/06/04 01:29:35;;;;;;;12.07;10.75;;;;;;;;;;5012949;28;20129;-84
2022/06/04 01:32:11;;;;;;;11.85;10.88;;;;;;;;;;5012653;28;20132;-84
2022/06/04 01:34:57;;;;;;;12.75;11.70;;;;;;;;;;5011819;28;20077;-84
2022/06/04 01:37:29;;;;;;;10.77;9.98;;;;;;;;;;5012964;28;20077;-83
2022/06/04 01:42:44;;;;;;;12.27;10.77;;;;;;;;;;5012826;28;20050;-84
2022/06/04 01:45:13;;;;;;;11.95;10.85;;;;;;;;;;5011534;28;20084;-83
2022/06/04 01:47:41;;;;;;;11.77;10.77;;;;;;;;;;5012955;28;20465;-83
2022/06/04 01:50:10;;;;;;;11.13;10.18;;;;;;;;;;5013871;28;20081;-84
2022/06/04 01:52:39;;;;;;;12.25;11.05;;;;;;;;;;5014541;28;20562;-83
2022/06/04 01:55:16;;;;;;;14.90;13.10;;;;;;;;;;5011422;28;20054;-83
2022/06/04 01:57:49;;;;;;;13.80;12.50;;;;;;;;;;5013930;28;20100;-83
2022/06/04 02:00:17;;;;;;;13.93;12.73;;;;;;;;;;5015439;28;20064;-83
2022/06/04 02:02:51;;;;;;;14.18;12.98;;;;;;;;;;5015160;28;20537;-83
2022/06/04 02:05:18;;;;;;;;;;;;;;;;;;5015133;28;20173;-83
2022/06/04 02:07:47;;;;;;;14.65;13.35;;;;;;;;;;5015203;28;20007;-83
2022/06/04 02:10:16;;;;;;;17.73;15.80;;;;;;;;;;5015014;28;20078;-83
2022/06/04 02:12:45;;;;;;;15.15;13.75;;;;;;;;;;5015100;28;20054;-83
2022/06/04 02:15:14;;;;;;;15.32;13.73;;;;;;;;;;5014855;28;20136;-83
2022/06/04 02:17:44;;;;;;;16.35;14.90;;;;;;;;;;5014687;28;20061;-83
2022/06/04 02:20:11;;;;;;;15.45;14.07;;;;;;;;;;5015891;28;20137;-83
2022/06/04 02:22:38;;;;;;;14.82;13.63;;;;;;;;;;5014815;28;20593;-83
2022/06/04 02:25:07;;;;;;;15.07;13.68;;;;;;;;;;5014607;28;20049;-83
2022/06/04 02:27:35;;;;;;;14.02;12.93;;;;;;;;;;5015909;28;20052;-84
2022/06/04 02:30:03;;;;;;;14.05;12.75;;;;;;;;;;5014241;28;20088;-83
2022/06/04 02:32:30;;;;;;;12.82;11.88;;;;;;;;;;5015699;28;20050;-83
2022/06/04 02:35:01;;;;;;;12.32;11.32;;;;;;;;;;5014484;28;20052;-83
2022/06/04 02:37:32;;;;;;;12.65;11.65;;;;;;;;;;5015012;28;20125;-83
2022/06/04 02:40:07;;;;;;;14.23;13.05;;;;;;;;;;5014714;28;20494;-83
2022/06/04 02:42:49;;;;;;;14.38;13.07;;;;;;;;;;5014658;28;20048;-83
2022/06/04 02:45:21;;;;;;;13.25;11.95;;;;;;;;;;5014626;28;20455;-83
2022/06/04 02:47:50;;;;;;;13.43;12.32;;;;;;;;;;5015981;28;20056;-83
2022/06/04 02:50:25;;;;;;;14.75;13.50;;;;;;;;;;5014720;28;20410;-83
2022/06/04 02:52:53;;;;;;;13.02;11.93;;;;;;;;;;5015553;28;20140;-83
2022/06/04 02:55:23;;;;;;;12.93;11.73;;;;;;;;;;5013965;28;20477;-83
2022/06/04 02:57:51;;;;;;;13.20;12.10;;;;;;;;;;5014476;28;20052;-83
2022/06/04 03:00:22;;;;;;;14.50;13.30;;;;;;;;;;5035216;28;20059;-83
2022/06/04 03:02:49;;;;;;;15.60;14.00;;;;;;;;;;5037632;28;20552;-83
2022/06/04 03:05:18;;;;;;;13.68;12.48;;;;;;;;;;5054835;28;20053;-83
2022/06/04 03:07:46;;;;;;;13.30;12.10;;;;;;;;;;5037959;28;20088;-83
2022/06/04 03:10:16;;;;;;;12.90;11.75;;;;;;;;;;5040320;28;20049;-82
2022/06/04 03:12:43;;;;;;;13.98;12.77;;;;;;;;;;5054998;28;20056;-82
2022/06/04 03:15:11;;;;;;;17.83;16.05;;;;;;;;;;5054787;28;20059;-82
2022/06/04 03:17:42;;;;;;;15.75;14.35;;;;;;;;;;5037173;28;20131;-83
2022/06/04 03:20:11;;;;;;;18.73;16.95;;;;;;;;;;5054473;28;20083;-83
2022/06/04 03:22:38;;;;;;;14.05;12.85;;;;;;;;;;5037260;28;20048;-82
2022/06/04 03:25:06;;;;;;;17.73;16.08;;;;;;;;;;5036953;28;20069;-82
2022/06/04 03:27:33;;;;;;;14.43;13.10;;;;;;;;;;5037251;28;20128;-82
2022/06/04 03:30:00;;;;;;;15.43;14.05;;;;;;;;;;5036899;28;20515;-83
2022/06/04 03:32:27;;;;;;;14.57;13.32;;;;;;;;;;5036702;28;20136;-84
2022/06/04 03:34:54;;;;;;;15.60;14.23;;;;;;;;;;5054163;28;20045;-82
2022/06/04 03:37:21;;;;;;;14.85;13.57;;;;;;;;;;5036932;28;20083;-82
2022/06/04 03:39:49;;;;;;;14.30;13.10;;;;;;;;;;5036835;28;20049;-83
2022/06/04 03:42:16;;;;;;;14.75;13.40;;;;;;;;;;5036693;28;20080;-83
2022/06/04 03:44:47;;;;;;;15.35;13.98;;;;;;;;;;5054439;28;20052;-82
2022/06/04 03:47:16;;;;;;;13.65;12.55;;;;;;;;;;5036363;28;20056;-82
2022/06/04 03:49:44;;;;;;;15.15;13.77;;;;;;;;;;5036835;28;20045;-83
2022/06/04 03:52:11;;;;;;;16.80;15.20;;;;;;;;;;5054159;28;20561;-83
2022/06/04 03:54:54;;;;;;;13.35;12.25;;;;;;;;;;5054075;28;20044;-83
2022/06/04 03:57:38;;;;;;;13.45;12.07;;;;;;;;;;5036555;28;20124;-82
2022/06/04 04:00:09;;;;;;;;;;;;;;;;;;5036627;28;20061;-83
2022/06/04 04:02:36;;;;;;;13.82;12.73;;;;;;;;;;5054342;28;19927;-83
2022/06/04 04:05:05;;;;;;;16.67;15.10;;;;;;;;;;5036310;28;20080;-83
2022/06/04 04:07:32;;;;;;;15.10;13.80;;;;;;;;;;5036373;28;20137;-83
2022/06/04 04:10:00;;;;;;;13.50;12.30;;;;;;;;;;5053782;28;20065;-83
2022/06/04 04:12:28;;;;;;;14.23;12.77;;;;;;;;;;5053706;28;20136;-83
2022/06/04 04:14:55;;;;;;;16.92;15.43;;;;;;;;;;5036142;28;20067;-83
2022/06/04 04:17:23;;;;;;;16.67;15.18;;;;;;;;;;5036212;28;20068;-83
2022/06/04 04:19:51;;;;;;;19.35;17.45;;;;;;;;;;5035413;28;20140;-83
2022/06/04 04:22:19;;;;;;;25.25;22.65;;;;;;;;;;5035863;28;20051;-83
2022/06/04 04:24:46;;;;;;;21.65;19.55;;;;;;;;;;5054139;28;20057;-82
2022/06/04 04:27:14;;;;;;;25.40;22.52;;;;;;;;;;5057581;28;20116;-83
2022/06/04 04:29:41;;;;;;;20.77;18.58;;;;;;;;;;5035922;28;20081;-83
2022/06/04 04:32:09;;;;;;;19.10;17.48;;;;;;;;;;5053563;28;20049;-83
2022/06/04 04:34:36;;;;;;;15.32;14.13;;;;;;;;;;5053379;28;20049;-83
2022/06/04 04:37:04;;;;;;;14.52;13.32;;;;;;;;;;5053200;28;20451;-82
2022/06/04 04:39:31;;;;;;;18.27;16.60;;;;;;;;;;5053113;28;20414;-83
2022/06/04 04:41:58;;;;;;;22.30;20.40;;;;;;;;;;5035401;28;20144;-82
2022/06/04 04:44:25;;;;;;;21.10;19.20;;;;;;;;;;5035660;28;20128;-82
2022/06/04 04:46:53;;;;;;;17.15;15.65;;;;;;;;;;5035579;28;20404;-82
2022/06/04 04:49:20;;;;;;;15.35;14.07;;;;;;;;;;5053219;28;20076;-83
2022/06/04 04:51:48;;;;;;;14.95;13.52;;;;;;;;;;5052846;28;20049;-83
2022/06/04 04:54:15;;;;;;;15.18;13.88;;;;;;;;;;5035312;28;20508;-83
2022/06/04 04:56:43;;;;;;;14.57;13.38;;;;;;;;;;5035243;28;20123;-83
2022/06/04 04:59:10;;;;;;;15.02;13.73;;;;;;;;;;5052823;28;20099;-83
2022/06/04 05:01:37;;;;;;;15.23;13.93;;;;;;;;;;5052705;28;20485;-83
2022/06/04 05:04:05;;;;;;;13.60;12.50;;;;;;;;;;5034963;28;20126;-83
2022/06/04 05:06:32;;;;;;;11.98;10.98;;;;;;;;;;5052676;28;20132;-83
2022/06/04 05:09:00;;;;;;;11.18;10.20;;;;;;;;;;5052809;28;20045;-83
2022/06/04 05:11:28;;;;;;;10.35;9.45;;;;;;;;;;5052969;28;20571;-83
2022/06/04 05:13:56;;;;;;;10.10;9.20;;;;;;;;;;5035028;28;20053;-83
2022/06/04 05:16:25;;;;;;;9.35;8.55;;;;;;;;;;5035060;28;20052;-83
2022/06/04 05:18:52;;;;;;;8.63;7.78;;;;;;;;;;5034995;28;20045;-83
2022/06/04 05:21:25;;;;;;;8.77;8.18;;;;;;;;;;5035032;28;20120;-83
2022/06/04 05:23:54;;;;;;;10.48;9.57;;;;;;;;;;5052628;28;20059;-83
2022/06/04 05:26:23;;;;;;;9.73;8.93;;;;;;;;;;5052548;28;20563;-83
2022/06/04 05:28:51;;;;;;;9.85;9.02;;;;;;;;;;5034959;28;20060;-83
2022/06/04 05:31:18;;;;;;;8.20;7.55;;;;;;;;;;5034548;28;20055;-83
2022/06/04 05:33:46;;;;;;;9.52;8.52;;;;;;;;;;5052359;28;20049;-83
2022/06/04 05:36:13;;;;;;;8.82;7.90;;;;;;;;;;5034867;28;20147;-84
2022/06/04 05:38:40;;;;;;;8.45;7.60;;;;;;;;;;5052759;28;20124;-84
2022/06/04 05:41:09;;;;;;;8.13;7.43;;;;;;;;;;5034888;28;20132;-84
2022/06/04 05:43:39;;;;;;;8.15;7.43;;;;;;;;;;5053493;28;20088;-85
2022/06/04 05:46:07;;;;;;;7.30;6.75;;;;;;;;;;5054052;28;20045;-83
2022/06/04 05:48:39;;;;;;;7.03;6.43;;;;;;;;;;5052393;28;20053;-83
2022/06/04 05:51:06;;;;;;;6.90;6.40;;;;;;;;;;5052417;28;20091;-83
2022/06/04 05:53:33;;;;;;;7.55;6.30;;;;;;;;;;5052463;28;20063;-84
2022/06/04 05:56:01;;;;;;;6.55;5.28;;;;;;;;;;5052134;28;20233;-84
2022/06/04 05:58:28;;;;;;;14.70;6.35;;;;;;;;;;5034468;28;20128;-84
2022/06/04 06:00:59;;;;;;;13.60;5.78;;;;;;;;;;5052228;28;20489;-82
2022/06/04 06:03:27;;;;;;;14.13;5.65;;;;;;;;;;5034643;28;20048;-83
2022/06/04 06:05:54;;;;;;;11.40;6.43;;;;;;;;;;5034336;28;20131;-83
2022/06/04 06:08:21;;;;;;;11.90;5.60;;;;;;;;;;5034201;28;20133;-82
2022/06/04 06:10:49;;;;;;;11.32;5.68;;;;;;;;;;5051833;28;20073;-83
2022/06/04 06:13:16;;;;;;;8.88;5.55;;;;;;;;;;5051859;28;20053;-83
2022/06/04 06:15:43;;;;;;;11.23;5.63;;;;;;;;;;5034221;28;20049;-80
2022/06/04 06:18:10;;;;;;;8.45;5.90;;;;;;;;;;5052168;28;20049;-81
2022/06/04 06:20:42;;;;;;;8.60;5.47;;;;;;;;;;5034553;28;20080;-81
2022/06/04 06:23:10;;;;;;;6.20;5.10;;;;;;;;;;5051938;28;20095;-81
2022/06/04 06:25:37;;;;;;;5.20;4.70;;;;;;;;;;5051723;28;20059;-83
2022/06/04 06:28:04;;;;;;;4.53;4.22;;;;;;;;;;5034196;28;20053;-84
2022/06/04 06:30:31;;;;;;;4.95;4.03;;;;;;;;;;5034238;28;20568;-83
2022/06/04 06:32:59;;;;;;;4.00;3.75;;;;;;;;;;5051928;28;20056;-81
2022/06/04 06:35:26;;;;;;;5.03;4.63;;;;;;;;;;5051858;28;20091;-81
2022/06/04 06:37:53;;;;;;;5.00;4.28;;;;;;;;;;5051716;28;20142;-80
2022/06/04 06:40:21;;;;;;;3.45;3.10;;;;;;;;;;5033678;28;20148;-81
2022/06/04 06:42:48;;;;;;;3.88;3.45;;;;;;;;;;5034110;28;20078;-81
2022/06/04 06:45:15;;;;;;;4.30;3.25;;;;;;;;;;5055270;28;20084;-81
2022/06/04 06:47:44;;;;;;;4.35;3.50;;;;;;;;;;5055506;28;20053;-81
2022/06/04 06:50:13;;;;;;;5.88;3.58;;;;;;;;;;5036991;28;20061;-80
2022/06/04 06:52:40;;;;;;;3.40;2.40;;;;;;;;;;5056452;28;20132;-82
2022/06/04 06:55:08;;;;;;;4.47;4.05;;;;;;;;;;5037780;28;20060;-81
2022/06/04 06:57:35;;;;;;;5.75;3.30;;;;;;;;;;5037843;28;20045;-82
2022/06/04 07:00:04;;;;;;;3.50;2.80;;;;;;;;;;5038171;28;20057;-81
2022/06/04 07:02:31;;;;;;;4.35;3.30;;;;;;;;;;5045316;28;20084;-81
2022/06/04 07:04:59;;;;;;;6.40;2.92;;;;;;;;;;5037271;28;20135;-81
2022/06/04 07:07:26;;;;;;;3.90;3.55;;;;;;;;;;5037449;28;20133;-81
2022/06/04 07:09:54;;;;;;;2.80;2.70;;;;;;;;;;5054593;28;20478;-81
2022/06/04 07:12:22;;;;;;;3.47;2.90;;;;;;;;;;5037678;28;20095;-81
2022/06/04 07:14:49;;;;;;;3.50;3.20;;;;;;;;;;5037351;28;20045;-80
2022/06/04 07:17:16;;;;;;;3.13;2.92;;;;;;;;;;5055242;28;20075;-80
2022/06/04 07:19:43;;;;;;;4.80;2.95;;;;;;;;;;5037376;28;20049;-81
2022/06/04 07:22:11;;;;;;;4.38;2.35;;;;;;;;;;5037015;28;20071;-81
2022/06/04 07:24:38;;;;;;;4.07;3.70;;;;;;;;;;5054776;28;20049;-80
2022/06/04 07:27:06;;;;;;;2.90;2.70;;;;;;;;;;5037119;28;20132;-81
2022/06/04 07:29:33;;;;;;;6.57;3.05;;;;;;;;;;5037324;28;20085;-82
2022/06/04 07:32:00;;;;;;;4.40;2.63;;;;;;;;;;5054652;28;20092;-82
2022/06/04 07:34:27;;;;;;;3.67;3.47;;;;;;;;;;5036900;28;20420;-83
2022/06/04 07:36:54;;;;;;;3.00;2.80;;;;;;;;;;5036923;28;20045;-81
2022/06/04 07:39:22;;;;;;;7.05;3.90;;;;;;;;;;5036997;28;20063;-81
2022/06/04 07:41:51;;;;;;;4.30;3.90;;;;;;;;;;5054464;28;20130;-81
2022/06/04 07:44:20;;;;;;;2.50;2.40;;;;;;;;;;5054541;28;20096;-82
2022/06/04 07:46:49;;;;;;;4.95;3.38;;;;;;;;;;5036753;28;20055;-82
2022/06/04 07:49:17;;;;;;;3.28;2.58;;;;;;;;;;5036527;28;20053;-82
2022/06/04 07:51:45;;;;;;;4.03;3.72;;;;;;;;;;5036697;28;20048;-82
2022/06/04 07:54:14;;;;;;;4.25;3.72;;;;;;;;;;5054205;28;20136;-82
2022/06/04 07:56:41;;;;;;;2.42;2.20;;;;;;;;;;5036902;28;20493;-82
2022/06/04 07:59:10;;;;;;;2.40;2.20;;;;;;;;;;5054095;28;20088;-82
2022/06/04 08:01:37;;;;;;;2.30;2.20;;;;;;;;;;5036576;28;20055;-82
2022/06/04 08:04:05;;;;;;;2.80;2.60;;;;;;;;;;5036451;28;20049;-82
2022/06/04 08:06:33;;;;;;;7.68;4.28;;;;;;;;;;5036472;28;20045;-81
2022/06/04 08:09:00;;;;;;;4.88;4.40;;;;;;;;;;5036519;28;20088;-82
2022/06/04 08:11:31;;;;;;;4.10;3.80;;;;;;;;;;5036297;28;20136;-82
2022/06/04 08:14:13;;;;;;;4.28;3.85;;;;;;;;;;5053987;28;20052;-82
2022/06/04 08:16:42;;;;;;;3.67;3.38;;;;;;;;;;5054070;28;20045;-83
2022/06/04 08:19:10;;;;;;;3.33;2.78;;;;;;;;;;5036736;28;20390;-82
2022/06/04 08:21:38;;;;;;;5.38;4.55;;;;;;;;;;5054919;28;20124;-84
2022/06/04 08:24:06;;;;;;;3.10;2.80;;;;;;;;;;5053870;28;20075;-84
2022/06/04 08:26:34;;;;;;;4.05;2.90;;;;;;;;;;5053767;28;20079;-82
2022/06/04 08:29:01;;;;;;;3.22;2.95;;;;;;;;;;5035987;28;20137;-82
2022/06/04 08:31:29;;;;;;;2.70;2.50;;;;;;;;;;5036168;28;20055;-83
2022/06/04 08:33:56;;;;;;;4.07;3.78;;;;;;;;;;5053570;28;20080;-82
2022/06/04 08:36:24;;;;;;;3.58;2.50;;;;;;;;;;5053670;28;20088;-83
2022/06/04 08:38:51;;;;;;;2.88;2.67;;;;;;;;;;5036007;28;20131;-83
2022/06/04 08:41:38;;;;;;;2.03;1.98;;;;;;;;;;5053322;28;20580;-83
2022/06/04 08:44:10;;;;;;;6.15;3.00;;;;;;;;;;5035859;28;20087;-83
2022/06/04 08:46:41;;;;;;;4.78;2.40;;;;;;;;;;5035845;28;20048;-83
2022/06/04 08:49:18;;;;;;;6.65;2.88;;;;;;;;;;5053196;28;20056;-82
2022/06/04 08:51:45;;;;;;;3.03;2.88;;;;;;;;;;5053205;28;20386;-82
2022/06/04 08:59:56;;;;;;;3.22;2.90;;;;;;;;;;5052957;28;20439;-83
2022/06/04 09:02:29;;;;;;;3.65;3.28;;;;;;;;;;5035447;28;20421;-82
2022/06/04 09:05:06;;;;;;;4.28;3.58;;;;;;;;;;5035232;28;20559;-82
2022/06/04 09:07:36;;;;;;;3.13;2.90;;;;;;;;;;5035049;28;20140;-82
2022/06/04 09:10:06;;;;;;;8.10;3.17;;;;;;;;;;5035210;28;20056;-82
2022/06/04 09:12:39;;;;;;;3.25;3.05;;;;;;;;;;5053247;28;20052;-82
2022/06/04 09:15:18;;;;;;;3.75;3.40;;;;;;;;;;5034982;28;20063;-82
2022/06/04 09:17:48;;;;;;;4.00;3.42;;;;;;;;;;5053133;28;20408;-82
2022/06/04 09:20:18;;;;;;;3.47;3.25;;;;;;;;;;5052879;28;20640;-81
2022/06/04 09:22:47;;;;;;;2.80;2.60;;;;;;;;;;5053061;28;20049;-82
2022/06/04 09:25:15;;;;;;;3.28;3.00;;;;;;;;;;5034855;28;20044;-82
2022/06/04 09:27:46;;;;;;;3.30;3.00;;;;;;;;;;5052927;28;20080;-83
2022/06/04 09:30:19;;;;;;;2.70;2.60;;;;;;;;;;5035197;28;20132;-83
2022/06/04 09:33:00;;;;;;;3.60;3.30;;;;;;;;;;5035672;28;20049;-84
2022/06/04 09:35:29;;;;;;;3.85;3.30;;;;;;;;;;5053170;28;20107;-83
2022/06/04 09:37:57;;;;;;;4.50;3.00;;;;;;;;;;5042508;28;20079;-82
2022/06/04 09:40:35;;;;;;;8.85;3.20;;;;;;;;;;5035298;28;20132;-83
2022/06/04 09:43:12;;;;;;;3.47;3.22;;;;;;;;;;5052590;28;20136;-83
2022/06/04 09:46:01;;;;;;;4.10;3.20;;;;;;;;;;5037602;28;20053;-83
2022/06/04 09:48:33;;;;;;;3.65;3.30;;;;;;;;;;5035221;28;20056;-82
2022/06/04 09:51:15;;;;;;;4.05;2.90;;;;;;;;;;5034863;28;20132;-83
2022/06/04 09:53:45;;;;;;;3.30;2.70;;;;;;;;;;5034967;28;20378;-81
2022/06/04 09:56:16;;;;;;;2.80;2.70;;;;;;;;;;5053205;28;20061;-82
2022/06/04 09:58:45;;;;;;;2.47;2.38;;;;;;;;;;5034291;28;20107;-81
2022/06/04 10:01:19;;;;;;;3.20;2.90;;;;;;;;;;5052658;28;20080;-82
2022/06/04 10:03:58;;;;;;;4.82;2.80;;;;;;;;;;5034601;28;20583;-82
2022/06/04 10:06:26;;;;;;;3.10;2.90;;;;;;;;;;5034656;28;20120;-82
2022/06/04 10:11:52;;;;;;;3.42;3.22;;;;;;;;;;5052220;28;20045;-82
2022/06/04 10:14:37;;;;;;;3.80;2.63;;;;;;;;;;5052452;28;20080;-83
2022/06/04 10:17:17;;;;;;;5.10;2.80;;;;;;;;;;5051907;28;20484;-82
2022/06/04 10:19:54;;;;;;;3.83;2.90;;;;;;;;;;5037328;28;20053;-82
2022/06/04 10:22:22;;;;;;;2.85;2.75;;;;;;;;;;5056240;28;20092;-83
2022/06/04 10:24:51;;;;;;;3.75;2.58;;;;;;;;;;5055962;28;20040;-83
2022/06/04 10:27:36;;;;;;;3.58;2.30;;;;;;;;;;5038434;28;20132;-83
2022/06/04 10:30:22;;;;;;;2.63;2.42;;;;;;;;;;5055750;28;20099;-82
2022/06/04 10:33:05;;;;;;;2.30;2.03;;;;;;;;;;5038465;28;20444;-83
2022/06/04 10:35:49;;;;;;;2.97;2.78;;;;;;;;;;5038247;28;20075;-83
2022/06/04 10:38:26;;;;;;;3.35;2.20;;;;;;;;;;5039173;28;20044;-83
2022/06/04 10:40:57;;;;;;;4.40;2.45;;;;;;;;;;5038014;28;20041;-83
2022/06/04 10:44:02;;;;;;;2.03;1.92;;;;;;;;;;5056347;28;20056;-83
2022/06/04 10:46:34;;;;;;;2.13;1.90;;;;;;;;;;5038091;28;20076;-82
2022/06/04 10:49:04;;;;;;;2.38;2.17;;;;;;;;;;5038171;28;20048;-83
2022/06/04 10:51:32;;;;;;;4.03;2.30;;;;;;;;;;5038886;28;20426;-82
2022/06/04 10:54:05;;;;;;;2.67;2.00;;;;;;;;;;5039025;28;20485;-83
2022/06/04 10:56:35;;;;;;;4.57;2.53;;;;;;;;;;5048976;28;20576;-81
2022/06/04 10:59:10;;;;;;;1.95;1.85;;;;;;;;;;5037635;28;20088;-82
2022/06/04 11:01:48;;;;;;;2.60;2.40;;;;;;;;;;5037898;28;20084;-83
2022/06/04 11:04:24;;;;;;;4.60;2.20;;;;;;;;;;5038063;28;20060;-82
2022/06/04 11:07:04;;;;;;;2.50;2.30;;;;;;;;;;5038394;28;20048;-82
2022/06/04 11:09:36;;;;;;;2.78;2.25;;;;;;;;;;5054827;28;20488;-82
2022/06/04 11:12:05;;;;;;;2.15;1.95;;;;;;;;;;5037534;28;20049;-82
2022/06/04 11:14:34;;;;;;;4.90;2.55;;;;;;;;;;5055139;28;20057;-81
2022/06/04 11:17:05;;;;;;;2.10;1.90;;;;;;;;;;5054994;28;20141;-81
2022/06/04 11:19:43;;;;;;;2.88;2.58;;;;;;;;;;5037341;28;20057;-81
2022/06/04 11:22:16;;;;;;;2.38;2.17;;;;;;;;;;5054939;28;20048;-82
2022/06/04 11:24:49;;;;;;;2.17;2.05;;;;;;;;;;5037264;28;20114;-81
2022/06/04 11:27:20;;;;;;;2.57;2.40;;;;;;;;;;5037475;28;20126;-82
2022/06/04 11:29:48;;;;;;;1.90;1.90;;;;;;;;;;5036579;28;20057;-81
2022/06/04 11:32:34;;;;;;;3.22;2.38;;;;;;;;;;5054649;28;20405;-84
2022/06/04 11:35:20;;;;;;;3.08;2.80;;;;;;;;;;5054995;28;20088;-81
2022/06/04 11:37:57;;;;;;;2.30;2.10;;;;;;;;;;5037024;28;20072;-82
2022/06/04 11:40:27;;;;;;;2.47;2.20;;;;;;;;;;5054467;28;20056;-82
2022/06/04 11:42:55;;;;;;;5.53;1.83;;;;;;;;;;5036949;28;20489;-83
2022/06/04 11:45:42;;;;;;;2.60;2.00;;;;;;;;;;5037039;28;20099;-81
2022/06/04 11:48:19;;;;;;;2.63;2.53;;;;;;;;;;5037988;28;20102;-82
2022/06/04 11:50:49;;;;;;;2.95;2.08;;;;;;;;;;5036731;28;20052;-82
2022/06/04 11:53:23;;;;;;;2.42;2.22;;;;;;;;;;5037064;28;20045;-82
2022/06/04 11:55:50;;;;;;;2.78;2.15;;;;;;;;;;5036552;28;20095;-82
2022/06/04 11:58:36;;;;;;;2.55;2.38;;;;;;;;;;5054388;28;20048;-80
2022/06/04 12:01:06;;;;;;;2.85;2.38;;;;;;;;;;5036509;28;20093;-82
2022/06/04 12:03:37;;;;;;;3.15;2.20;;;;;;;;;;5036589;28;20053;-82
2022/06/04 12:06:16;;;;;;;2.33;2.22;;;;;;;;;;5054001;28;20401;-81
2022/06/04 12:08:45;;;;;;;3.28;2.53;;;;;;;;;;5053893;28;20402;-81
2022/06/04 12:11:15;;;;;;;2.80;2.38;;;;;;;;;;5037432;28;20084;-82
2022/06/04 12:14:01;;;;;;;3.22;2.65;;;;;;;;;;5045939;28;20088;-82
2022/06/04 12:16:34;;;;;;;5.50;2.58;;;;;;;;;;5036156;28;20059;-81
2022/06/04 12:19:05;;;;;;;2.33;2.22;;;;;;;;;;5054008;28;20528;-82
2022/06/04 12:24:29;;;;;;;2.75;2.40;;;;;;;;;;5053919;28;20132;-81
2022/06/04 12:27:07;;;;;;;2.47;2.38;;;;;;;;;;5036304;28;20485;-82
2022/06/04 12:29:36;;;;;;;2.97;2.67;;;;;;;;;;5036083;28;20152;-82
2022/06/04 12:32:06;;;;;;;4.50;2.10;;;;;;;;;;5036006;28;20087;-82
2022/06/04 12:34:35;;;;;;;2.70;2.50;;;;;;;;;;5053352;28;20566;-82
2022/06/04 12:37:03;;;;;;;3.92;2.45;;;;;;;;;;5036109;28;20124;-82
2022/06/04 12:39:35;;;;;;;2.53;2.38;;;;;;;;;;5053784;28;20092;-82
2022/06/04 12:42:12;;;;;;;2.85;2.58;;;;;;;;;;5035065;28;20055;-81
2022/06/04 12:44:41;;;;;;;2.55;2.20;;;;;;;;;;5053097;28;20049;-83
2022/06/04 12:47:11;;;;;;;2.42;2.33;;;;;;;;;;5053216;28;20069;-82
2022/06/04 12:49:57;;;;;;;2.28;2.10;;;;;;;;;;5035446;28;20053;-82
2022/06/04 12:52:29;;;;;;;2.15;2.00;;;;;;;;;;5053582;28;20476;-82
2022/06/04 12:55:00;;;;;;;2.20;2.10;;;;;;;;;;5053008;28;20073;-82
2022/06/04 12:57:40;;;;;;;2.05;1.90;;;;;;;;;;5053481;28;20049;-83
2022/06/04 13:00:22;;;;;;;2.20;2.05;;;;;;;;;;5052912;28;20088;-82
2022/06/04 13:02:57;;;;;;;2.08;1.98;;;;;;;;;;5053128;28;20048;-82
2022/06/04 13:05:25;;;;;;;4.13;1.63;;;;;;;;;;5053127;28;20049;-82
2022/06/04 13:08:17;;;;;;;1.77;1.67;;;;;;;;;;5052959;28;20131;-83
2022/06/04 13:10:57;;;;;;;5.30;1.55;;;;;;;;;;5035416;28;20044;-82
2022/06/04 13:13:36;;;;;;;2.20;2.00;;;;;;;;;;5053007;28;20168;-82
2022/06/04 13:16:05;;;;;;;4.10;1.85;;;;;;;;;;5052764;28;20059;-83
2022/06/04 13:18:34;;;;;;;2.67;1.90;;;;;;;;;;5052838;28;20075;-81
2022/06/04 13:21:03;;;;;;;1.70;1.60;;;;;;;;;;5035138;28;20057;-82
2022/06/04 13:23:40;;;;;;;2.55;1.65;;;;;;;;;;5052654;28;20049;-81
2022/06/04 13:26:27;;;;;;;1.42;1.33;;;;;;;;;;5034882;28;20056;-82
2022/06/04 13:28:55;;;;;;;2.70;1.92;;;;;;;;;;5034935;28;20048;-82
2022/06/04 13:31:25;;;;;;;1.30;1.30;;;;;;;;;;5053565;28;20068;-82
2022/06/04 13:33:54;;;;;;;1.55;1.45;;;;;;;;;;5034958;28;20079;-80
2022/06/04 13:36:29;;;;;;;1.25;1.25;;;;;;;;;;5052931;28;20057;-82
2022/06/04 13:38:57;;;;;;;2.70;1.70;;;;;;;;;;5034684;28;20059;-81
2022/06/04 13:44:21;;;;;;;1.10;1.10;;;;;;;;;;5052343;28;20049;-82
2022/06/04 13:46:48;;;;;;;2.63;1.08;;;;;;;;;;5034830;28;20052;-81
2022/06/04 13:49:22;;;;;;;1.50;1.40;;;;;;;;;;5052506;28;20094;-82
2022/06/04 13:51:54;;;;;;;1.17;1.15;;;;;;;;;;5034634;28;20095;-81
2022/06/04 13:54:32;;;;;;;1.33;1.23;;;;;;;;;;5041688;28;20131;-82
2022/06/04 13:57:01;;;;;;;2.65;1.50;;;;;;;;;;5041106;28;20047;-81
2022/06/04 13:59:36;;;;;;;1.45;1.35;;;;;;;;;;5041187;28;20085;-81
2022/06/04 14:02:09;;;;;;;1.17;1.17;;;;;;;;;;5058927;28;20064;-80
2022/06/04 14:07:32;;;;;;;1.30;1.30;;;;;;;;;;5058864;28;20493;-82
2022/06/04 14:09:59;;;;;;;2.47;1.40;;;;;;;;;;5041154;28;20049;-82
2022/06/04 14:12:32;;;;;;;2.15;1.63;;;;;;;;;;5041258;28;20052;-81
2022/06/04 14:15:06;;;;;;;3.10;1.60;;;;;;;;;;5058679;28;20100;-81
2022/06/04 14:17:41;;;;;;;1.55;1.45;;;;;;;;;;5041362;28;20119;-81
2022/06/04 14:20:18;;;;;;;1.55;1.45;;;;;;;;;;5041079;28;20489;-82
2022/06/04 14:22:45;;;;;;;1.77;1.67;;;;;;;;;;5041015;28;20053;-81
2022/06/04 14:25:12;;;;;;;3.13;1.50;;;;;;;;;;5040782;28;20051;-81
2022/06/04 14:27:46;;;;;;;1.88;1.77;;;;;;;;;;5041184;28;20124;-81
2022/06/04 14:30:25;;;;;;;2.30;1.50;;;;;;;;;;5058822;28;20140;-81
2022/06/04 14:32:54;;;;;;;1.70;1.60;;;;;;;;;;5058740;28;20124;-82
2022/06/04 14:35:32;;;;;;;1.67;1.58;;;;;;;;;;5058690;28;20055;-82
2022/06/04 14:38:15;;;;;;;2.55;1.52;;;;;;;;;;5040895;28;20131;-81
2022/06/04 14:40:53;;;;;;;1.75;1.60;;;;;;;;;;5059001;28;20052;-81
2022/06/04 14:43:23;;;;;;;1.90;1.80;;;;;;;;;;5058626;28;20055;-82
2022/06/04 14:45:57;;;;;;;1.70;1.60;;;;;;;;;;5040777;28;20049;-81
2022/06/04 14:48:44;;;;;;;1.60;1.50;;;;;;;;;;5041771;28;20107;-81
2022/06/04 14:51:17;;;;;;;2.20;1.80;;;;;;;;;;5060531;28;20099;-82
2022/06/04 14:53:46;;;;;;;1.55;1.45;;;;;;;;;;5060317;28;20088;-82
2022/06/04 14:56:13;;;;;;;1.42;1.40;;;;;;;;;;5058864;28;20084;-82
2022/06/04 14:59:02;;;;;;;1.27;1.17;;;;;;;;;;5041223;28;20175;-83
2022/06/04 15:01:48;;;;;;;1.38;1.27;;;;;;;;;;5058725;28;20076;-82
2022/06/04 15:04:18;;;;;;;1.65;1.52;;;;;;;;;;5038802;28;20060;-83
2022/06/04 15:06:57;;;;;;;1.45;1.33;;;;;;;;;;5055938;28;20045;-82
2022/06/04 15:09:36;;;;;;;1.50;1.40;;;;;;;;;;5037851;28;20059;-82
2022/06/04 15:12:19;;;;;;;1.70;1.60;;;;;;;;;;5037659;28;20051;-83
2022/06/04 15:14:58;;;;;;;3.42;1.55;;;;;;;;;;5037311;28;20580;-83
2022/06/04 15:17:51;;;;;;;1.45;1.35;;;;;;;;;;5037429;28;20140;-82
2022/06/04 15:20:32;;;;;;;1.20;1.20;;;;;;;;;;5037763;28;20199;-83
2022/06/04 15:22:59;;;;;;;1.50;1.40;;;;;;;;;;5055065;28;20045;-83
2022/06/04 15:25:32;;;;;;;1.73;1.30;;;;;;;;;;5037038;28;20056;-82